Main page
METAR-TAF:

METAR-TAF

Airports :

Shanghai Pudong International Airport

Shanghai-Pudong, China

latitude: 31-07N, longitude: 121-46E, elevation: 4 m

Current weather observation

The report was made 33 minutes ago, at 11:00 UTC
Wind 12 kt from the North/Northeast
Temperature 29°C
Humidity 84%
Pressure 1002 hPa
Visibility 10 km or more
Scattered clouds at a height of 1600 ft

METAR: ZSPD 151100Z 03006MPS 9999 SCT016 29/26 Q1002 NOSIG

Time: 19:33 (11:33 UTC)

Forecast

The report was made 8 hours and 17 minutes ago, at 03:16 UTC
Forecast valid from 15 at 06 UTC to 16 at 06 UTC
Wind 16 kt from the East with gusts up to 27 kt
Visibility: 6000 m
Broken clouds at a height of 1100 ft
Becoming
from 15 at 16 UTC to 15 at 18 UTC
Wind 19 kt from the North/Northeast with gusts up to 31 kt

TAF: ZSPD 150316Z 1506/1606 08008G14MPS 6000 BKN011 TX33/1506Z TN26/1520Z BECMG 1516/1518 02010G16MPS

Weather observations and forecasts of more than 4000 airports (METAR and TAF reports).

The available stations are represented by yellow and red dots on the map.

Hover mouse over dot to see the name of the station.

Then click to see weather observations and forecasts.

To change the map : click on the green buttons with a black cross to zoom in, on the green button with a dash to zoom out, or on the green arrows for adjacent maps.


METAR-TAF: